Startpagina
METAR-TAF:

METAR-TAF

Vliegvelden :

Albert, Frankrijk

breedte: 49-58-21N, lengte: 002-41-29E, hoogte: 111 m

Actueel weer

Dit bericht is 35 minuten geleden gemaakt, om 07:30 UTC
Wind 8 kt uit het zuidoosten
Temperatuur 6°C
Vochtigheid 93%
Druk 1021 hPa
Zicht: 6000 m

METAR: LFAQ 180730Z AUTO 14008KT 6000 NSC 06/05 Q1021 NOSIG

Tijdstip: 10:05 (08:05 UTC)

Verwachting

Dit bericht is 3 uur en het 5 minuten geleden gemaakt, om 05:00 UTC
Verwachting geldig van 18 om 06 UTC tot 18 om 15 UTC
Wind 7 kt uit het zuidoosten
Zicht 10 km of meer
geen wolken onder 1500 m en geen cumulonimbus
Tijdelijke
van 18 om 06 UTC tot 18 om 08 UTC
Zicht: 4000 m
nevel

TAF: LFAQ 180500Z 1806/1815 14007KT CAVOK TEMPO 1806/1808 4000 BR

Waarnemingen en weersverwachtingen van meer dan 4000 vliegvelden (METAR en TAF).

De beschikbare stations zijn de gele en rode punten op de kaart.

Ga met uw muis naar het station om de naam te zien.

Klik dan om waarnemingen en weersverwachtingen te zien.

kaart wijzigen: klik op de groene knoppen met een zwart kruis om in te zoomen, op de groene knop met een streepje om uit te zoomen of op de groene pijlen voor aangrenzende kaarten.


METAR-TAF: